Arverne, NY

10:14 AM EDT on August 21, 2014 (GMT -0400)
Howard Beach | Change Station
CLOSE
Current Station
Personal Weather Station
Location: Queens, NY
Elevation: 7 ft
Nearby Weather Stations

Elev 7 ft 40.66 °N, 73.84 °W | Updated 57 seconds ago

Scattered Clouds
Scattered Clouds
77.2 °F
Feels Like 79 °F
N
1.0
Wind Variable Wind from SSE
Gusts 5.0 mph

Today
High -- | Low -- °F
--% Chance of Precip.
Yesterday
High -- | Low -- °F
Precip. -- in
6:11 AM 7:44 PM
Waning Crescent, 14% visible
Pressure 30.08 in
Visibility 10.0 miles
Clouds Few 3200 ft
Scattered Clouds 7000 ft
Scattered Clouds 25000 ft
Heat Index 79 °F
Dew Point 67 °F
Humidity 70%
Rainfall 0.00 in
Snow Depth Not available.
UV 4 out of 12
Pollen 8.80 out of 12
Air Quality Not available.
Flu Activity Not available.
METAR KJFK 211351Z 20005KT 10SM FEW032 SCT070 SCT250 25/17 A3008 RMK AO2 SLP186 T02500167 $

More Conditions Fewer Conditions

Pressure 30.08 in
Visibility 10.0 miles
Clouds Few 3200 ft
Scattered Clouds 7000 ft
Scattered Clouds 25000 ft
Heat Index 79 °F
Dew Point 67 °F
Humidity 70%
Rainfall 0.00 in
Snow Depth Not available.
UV 4 out of 12
Pollen 8.80 out of 12
Air Quality Not available.
Flu Activity Not available.
METAR KJFK 211351Z 20005KT 10SM FEW032 SCT070 SCT250 25/17 A3008 RMK AO2 SLP186 T02500167 $

More Conditions Fewer Conditions

10-Day Weather Forecast

Almanac

Astronomy

Aug. 21, 2014 Rise Set
Actual Time 6:11 AM EDT 7:44 PM EDT
Civil Twilight 5:42 AM EDT 8:13 PM EDT
Nautical Twilight 5:07 AM EDT 8:47 PM EDT
Astronomical Twilight 4:30 AM EDT 9:24 PM EDT
Moon 2:39 AM EDT 5:11 PM EDT
Length of Visible Light 14h 30m
Length of Day
13h 32m
Tomorrow will be 2m 27s shorter.
Waning Crescent, 14% of the Moon is Illuminated
Today
Waning Crescent
Aug 25
New
Sep 2
First Quarter
Sep 8
Full
Sep 15
Last Quarter

Today's Extremes

State Highs State Lows

Community

WunderPhotos

Upload Photos

1,745,921 photos uploaded!

WunderBlogs® & News

Nearby

Snow Depth

Station Depth Elevation
No new snow has been reported.

Earthquake Activity

City Distance Mag. Time & Date
No recent earthquake activity has been reported nearby.
Minimum magnitude displayed is 2.5.

Coastal Water Temperatures

Place Temperature
Sandy Hook, NJ 75.0 °F
The Battery, NY 73.0 °F
Bergen Point West Reach, NJ 73.9 °F
Kings Point, NY 73.0 °F

Nearby Weather Stations